sensor_id;sensor_type;location;lat;lon;timestamp;P1;durP1;ratioP1;P2;durP2;ratioP2
27313;SDS011;14800;48.174;9.798;2023-12-20T00:00:54;2.47;;;2.08;;
27313;SDS011;14800;48.174;9.798;2023-12-20T00:03:20;2.63;;;2.38;;
27313;SDS011;14800;48.174;9.798;2023-12-20T00:05:45;3.00;;;2.05;;
27313;SDS011;14800;48.174;9.798;2023-12-20T00:08:12;2.65;;;2.13;;
27313;SDS011;14800;48.174;9.798;2023-12-20T00:10:37;1.88;;;1.73;;
27313;SDS011;14800;48.174;9.798;2023-12-20T00:13:03;2.92;;;2.20;;
27313;SDS011;14800;48.174;9.798;2023-12-20T00:15:28;2.08;;;1.73;;
27313;SDS011;14800;48.174;9.798;2023-12-20T00:17:54;2.35;;;1.95;;
27313;SDS011;14800;48.174;9.798;2023-12-20T00:20:20;2.10;;;1.90;;
27313;SDS011;14800;48.174;9.798;2023-12-20T00:22:45;2.10;;;1.90;;
27313;SDS011;14800;48.174;9.798;2023-12-20T00:25:11;2.47;;;2.08;;
27313;SDS011;14800;48.174;9.798;2023-12-20T00:27:36;2.72;;;2.20;;
27313;SDS011;14800;48.174;9.798;2023-12-20T00:30:02;2.58;;;2.25;;
27313;SDS011;14800;48.174;9.798;2023-12-20T00:32:28;2.65;;;1.90;;
27313;SDS011;14800;48.174;9.798;2023-12-20T00:34:54;2.33;;;2.10;;
27313;SDS011;14800;48.174;9.798;2023-12-20T00:37:19;2.17;;;1.98;;
27313;SDS011;14800;48.174;9.798;2023-12-20T00:39:45;2.00;;;1.80;;
27313;SDS011;14800;48.174;9.798;2023-12-20T00:42:10;2.92;;;2.10;;
27313;SDS011;14800;48.174;9.798;2023-12-20T00:44:36;2.17;;;1.90;;
27313;SDS011;14800;48.174;9.798;2023-12-20T00:47:01;3.22;;;2.10;;
27313;SDS011;14800;48.174;9.798;2023-12-20T00:49:27;2.00;;;1.77;;
27313;SDS011;14800;48.174;9.798;2023-12-20T00:51:52;3.03;;;1.90;;
27313;SDS011;14800;48.174;9.798;2023-12-20T00:54:18;1.83;;;1.67;;
27313;SDS011;14800;48.174;9.798;2023-12-20T00:56:44;1.80;;;1.70;;
27313;SDS011;14800;48.174;9.798;2023-12-20T00:59:09;1.80;;;1.70;;
27313;SDS011;14800;48.174;9.798;2023-12-20T01:01:35;1.80;;;1.70;;
27313;SDS011;14800;48.174;9.798;2023-12-20T01:04:01;1.80;;;1.70;;
27313;SDS011;14800;48.174;9.798;2023-12-20T01:06:26;2.35;;;2.00;;
27313;SDS011;14800;48.174;9.798;2023-12-20T01:08:52;2.08;;;1.88;;
27313;SDS011;14800;48.174;9.798;2023-12-20T01:11:18;2.30;;;2.10;;
27313;SDS011;14800;48.174;9.798;2023-12-20T01:13:43;2.28;;;1.90;;
27313;SDS011;14800;48.174;9.798;2023-12-20T01:16:10;1.90;;;1.80;;
27313;SDS011;14800;48.174;9.798;2023-12-20T01:18:36;2.60;;;1.92;;
27313;SDS011;14800;48.174;9.798;2023-12-20T01:21:05;1.95;;;1.83;;
27313;SDS011;14800;48.174;9.798;2023-12-20T01:23:31;1.88;;;1.77;;
27313;SDS011;14800;48.174;9.798;2023-12-20T01:25:57;2.10;;;1.90;;
27313;SDS011;14800;48.174;9.798;2023-12-20T01:28:24;2.22;;;2.00;;
27313;SDS011;14800;48.174;9.798;2023-12-20T01:30:50;2.53;;;2.20;;
27313;SDS011;14800;48.174;9.798;2023-12-20T01:33:16;2.47;;;2.13;;
27313;SDS011;14800;48.174;9.798;2023-12-20T01:35:41;2.70;;;2.35;;
27313;SDS011;14800;48.174;9.798;2023-12-20T01:38:07;2.20;;;2.00;;
27313;SDS011;14800;48.174;9.798;2023-12-20T01:40:32;2.50;;;2.25;;
27313;SDS011;14800;48.174;9.798;2023-12-20T01:42:59;2.75;;;2.17;;
27313;SDS011;14800;48.174;9.798;2023-12-20T01:45:32;2.17;;;1.90;;
27313;SDS011;14800;48.174;9.798;2023-12-20T01:47:57;4.60;;;2.20;;
27313;SDS011;14800;48.174;9.798;2023-12-20T01:50:25;3.15;;;2.28;;
27313;SDS011;14800;48.174;9.798;2023-12-20T01:52:51;3.40;;;2.17;;
27313;SDS011;14800;48.174;9.798;2023-12-20T01:55:20;2.42;;;2.20;;
27313;SDS011;14800;48.174;9.798;2023-12-20T01:57:46;2.80;;;2.35;;
27313;SDS011;14800;48.174;9.798;2023-12-20T02:00:12;2.17;;;1.95;;
27313;SDS011;14800;48.174;9.798;2023-12-20T02:02:39;2.72;;;2.40;;
27313;SDS011;14800;48.174;9.798;2023-12-20T02:05:06;2.33;;;2.13;;
27313;SDS011;14800;48.174;9.798;2023-12-20T02:07:32;2.83;;;2.50;;
27313;SDS011;14800;48.174;9.798;2023-12-20T02:09:59;2.97;;;2.40;;
27313;SDS011;14800;48.174;9.798;2023-12-20T02:12:26;3.40;;;2.33;;
27313;SDS011;14800;48.174;9.798;2023-12-20T02:14:51;2.60;;;2.38;;
27313;SDS011;14800;48.174;9.798;2023-12-20T02:17:17;2.83;;;2.28;;
27313;SDS011;14800;48.174;9.798;2023-12-20T02:19:43;2.50;;;2.30;;
27313;SDS011;14800;48.174;9.798;2023-12-20T02:22:09;2.42;;;2.22;;
27313;SDS011;14800;48.174;9.798;2023-12-20T02:24:38;2.80;;;2.03;;
27313;SDS011;14800;48.174;9.798;2023-12-20T02:27:05;1.92;;;1.73;;
27313;SDS011;14800;48.174;9.798;2023-12-20T02:29:32;2.45;;;2.05;;
27313;SDS011;14800;48.174;9.798;2023-12-20T02:31:59;2.20;;;2.00;;
27313;SDS011;14800;48.174;9.798;2023-12-20T02:34:24;2.22;;;2.00;;
27313;SDS011;14800;48.174;9.798;2023-12-20T02:36:50;2.25;;;2.05;;
27313;SDS011;14800;48.174;9.798;2023-12-20T02:39:16;2.72;;;2.38;;
27313;SDS011;14800;48.174;9.798;2023-12-20T02:41:41;1.67;;;1.58;;
27313;SDS011;14800;48.174;9.798;2023-12-20T02:44:07;2.70;;;1.77;;
27313;SDS011;14800;48.174;9.798;2023-12-20T02:46:33;1.67;;;1.58;;
27313;SDS011;14800;48.174;9.798;2023-12-20T02:48:58;1.77;;;1.67;;
27313;SDS011;14800;48.174;9.798;2023-12-20T02:51:24;1.75;;;1.65;;
27313;SDS011;14800;48.174;9.798;2023-12-20T02:53:49;1.67;;;1.58;;
27313;SDS011;14800;48.174;9.798;2023-12-20T02:56:15;1.73;;;1.58;;
27313;SDS011;14800;48.174;9.798;2023-12-20T02:58:40;1.73;;;1.35;;
27313;SDS011;14800;48.174;9.798;2023-12-20T03:01:06;1.40;;;1.30;;
27313;SDS011;14800;48.174;9.798;2023-12-20T03:03:31;1.38;;;1.27;;
27313;SDS011;14800;48.174;9.798;2023-12-20T03:05:57;1.35;;;1.25;;
27313;SDS011;14800;48.174;9.798;2023-12-20T03:08:23;1.30;;;1.20;;
27313;SDS011;14800;48.174;9.798;2023-12-20T03:10:48;1.35;;;1.20;;
27313;SDS011;14800;48.174;9.798;2023-12-20T03:13:14;1.42;;;1.20;;
27313;SDS011;14800;48.174;9.798;2023-12-20T03:15:40;1.10;;;1.00;;
27313;SDS011;14800;48.174;9.798;2023-12-20T03:18:05;1.00;;;1.00;;
27313;SDS011;14800;48.174;9.798;2023-12-20T03:20:31;0.77;;;0.77;;
27313;SDS011;14800;48.174;9.798;2023-12-20T03:22:59;1.00;;;1.00;;
27313;SDS011;14800;48.174;9.798;2023-12-20T03:25:25;1.10;;;1.00;;
27313;SDS011;14800;48.174;9.798;2023-12-20T03:27:51;1.15;;;1.00;;
27313;SDS011;14800;48.174;9.798;2023-12-20T03:30:17;1.00;;;0.90;;
27313;SDS011;14800;48.174;9.798;2023-12-20T03:32:42;1.00;;;0.90;;
27313;SDS011;14800;48.174;9.798;2023-12-20T03:35:08;0.77;;;0.77;;
27313;SDS011;14800;48.174;9.798;2023-12-20T03:37:34;0.90;;;0.90;;
27313;SDS011;14800;48.174;9.798;2023-12-20T03:39:59;1.00;;;0.90;;
27313;SDS011;14800;48.174;9.798;2023-12-20T03:42:25;0.80;;;0.80;;
27313;SDS011;14800;48.174;9.798;2023-12-20T03:44:51;1.63;;;0.82;;
27313;SDS011;14800;48.174;9.798;2023-12-20T03:47:16;1.88;;;0.77;;
27313;SDS011;14800;48.174;9.798;2023-12-20T03:49:42;0.80;;;0.70;;
27313;SDS011;14800;48.174;9.798;2023-12-20T03:52:07;0.88;;;0.88;;
27313;SDS011;14800;48.174;9.798;2023-12-20T03:54:34;4.88;;;1.05;;
27313;SDS011;14800;48.174;9.798;2023-12-20T03:57:00;1.58;;;0.95;;
27313;SDS011;14800;48.174;9.798;2023-12-20T03:59:26;1.70;;;0.90;;
27313;SDS011;14800;48.174;9.798;2023-12-20T04:01:51;1.20;;;1.10;;
27313;SDS011;14800;48.174;9.798;2023-12-20T04:04:17;3.05;;;1.10;;
27313;SDS011;14800;48.174;9.798;2023-12-20T04:06:43;1.10;;;1.00;;
27313;SDS011;14800;48.174;9.798;2023-12-20T04:09:09;2.00;;;1.27;;
27313;SDS011;14800;48.174;9.798;2023-12-20T04:11:34;1.40;;;1.30;;
27313;SDS011;14800;48.174;9.798;2023-12-20T04:14:01;1.65;;;1.30;;
27313;SDS011;14800;48.174;9.798;2023-12-20T04:16:27;1.20;;;1.10;;
27313;SDS011;14800;48.174;9.798;2023-12-20T04:18:52;1.05;;;0.95;;
27313;SDS011;14800;48.174;9.798;2023-12-20T04:21:18;1.42;;;1.15;;
27313;SDS011;14800;48.174;9.798;2023-12-20T04:23:43;2.22;;;1.52;;
27313;SDS011;14800;48.174;9.798;2023-12-20T04:26:09;2.00;;;1.17;;
27313;SDS011;14800;48.174;9.798;2023-12-20T04:28:35;1.42;;;1.00;;
27313;SDS011;14800;48.174;9.798;2023-12-20T04:31:00;1.40;;;1.30;;
27313;SDS011;14800;48.174;9.798;2023-12-20T04:33:26;1.65;;;1.35;;
27313;SDS011;14800;48.174;9.798;2023-12-20T04:35:51;1.80;;;1.52;;
27313;SDS011;14800;48.174;9.798;2023-12-20T04:38:17;1.50;;;1.38;;
27313;SDS011;14800;48.174;9.798;2023-12-20T04:40:42;1.38;;;1.27;;
27313;SDS011;14800;48.174;9.798;2023-12-20T04:43:08;2.47;;;1.63;;
27313;SDS011;14800;48.174;9.798;2023-12-20T04:45:34;1.45;;;1.30;;
27313;SDS011;14800;48.174;9.798;2023-12-20T04:48:00;1.40;;;1.30;;
27313;SDS011;14800;48.174;9.798;2023-12-20T04:50:26;2.83;;;1.40;;
27313;SDS011;14800;48.174;9.798;2023-12-20T04:52:52;1.63;;;1.25;;
27313;SDS011;14800;48.174;9.798;2023-12-20T04:55:17;2.45;;;1.20;;
27313;SDS011;14800;48.174;9.798;2023-12-20T04:57:43;1.65;;;1.50;;
27313;SDS011;14800;48.174;9.798;2023-12-20T05:00:09;1.40;;;1.30;;
27313;SDS011;14800;48.174;9.798;2023-12-20T05:02:35;1.30;;;1.20;;
27313;SDS011;14800;48.174;9.798;2023-12-20T05:05:01;1.35;;;1.23;;
27313;SDS011;14800;48.174;9.798;2023-12-20T05:07:27;2.22;;;1.58;;
27313;SDS011;14800;48.174;9.798;2023-12-20T05:09:52;2.60;;;1.90;;
27313;SDS011;14800;48.174;9.798;2023-12-20T05:12:18;3.15;;;1.90;;
27313;SDS011;14800;48.174;9.798;2023-12-20T05:14:44;2.13;;;1.67;;
27313;SDS011;14800;48.174;9.798;2023-12-20T05:17:11;2.25;;;1.73;;
27313;SDS011;14800;48.174;9.798;2023-12-20T05:19:36;2.38;;;1.95;;
27313;SDS011;14800;48.174;9.798;2023-12-20T05:22:02;2.58;;;2.10;;
27313;SDS011;14800;48.174;9.798;2023-12-20T05:24:28;2.22;;;1.95;;
27313;SDS011;14800;48.174;9.798;2023-12-20T05:26:54;3.90;;;2.15;;
27313;SDS011;14800;48.174;9.798;2023-12-20T05:29:19;2.22;;;2.03;;
27313;SDS011;14800;48.174;9.798;2023-12-20T05:31:45;2.90;;;2.40;;
27313;SDS011;14800;48.174;9.798;2023-12-20T05:34:11;2.30;;;2.10;;
27313;SDS011;14800;48.174;9.798;2023-12-20T05:36:36;4.63;;;2.45;;
27313;SDS011;14800;48.174;9.798;2023-12-20T05:39:02;2.80;;;2.50;;
27313;SDS011;14800;48.174;9.798;2023-12-20T05:41:31;2.70;;;2.50;;
27313;SDS011;14800;48.174;9.798;2023-12-20T05:43:56;2.60;;;2.40;;
27313;SDS011;14800;48.174;9.798;2023-12-20T05:46:23;3.50;;;2.78;;
27313;SDS011;14800;48.174;9.798;2023-12-20T05:48:49;3.70;;;2.65;;
27313;SDS011;14800;48.174;9.798;2023-12-20T05:51:14;2.97;;;2.67;;
27313;SDS011;14800;48.174;9.798;2023-12-20T05:53:40;3.72;;;2.70;;
27313;SDS011;14800;48.174;9.798;2023-12-20T05:56:06;3.15;;;2.85;;
27313;SDS011;14800;48.174;9.798;2023-12-20T05:58:32;3.67;;;2.97;;
27313;SDS011;14800;48.174;9.798;2023-12-20T06:00:58;2.95;;;2.65;;
27313;SDS011;14800;48.174;9.798;2023-12-20T06:03:24;3.88;;;2.63;;
27313;SDS011;14800;48.174;9.798;2023-12-20T06:05:49;2.60;;;2.40;;
27313;SDS011;14800;48.174;9.798;2023-12-20T06:08:15;2.67;;;2.47;;
27313;SDS011;14800;48.174;9.798;2023-12-20T06:10:40;3.15;;;2.85;;
27313;SDS011;14800;48.174;9.798;2023-12-20T06:13:06;2.92;;;2.65;;
27313;SDS011;14800;48.174;9.798;2023-12-20T06:15:32;3.15;;;2.85;;
27313;SDS011;14800;48.174;9.798;2023-12-20T06:17:58;2.97;;;2.67;;
27313;SDS011;14800;48.174;9.798;2023-12-20T06:20:23;3.72;;;3.00;;
27313;SDS011;14800;48.174;9.798;2023-12-20T06:22:50;3.15;;;2.80;;
27313;SDS011;14800;48.174;9.798;2023-12-20T06:25:15;3.78;;;3.10;;
27313;SDS011;14800;48.174;9.798;2023-12-20T06:27:41;3.17;;;2.88;;
27313;SDS011;14800;48.174;9.798;2023-12-20T06:30:07;4.30;;;3.17;;
27313;SDS011;14800;48.174;9.798;2023-12-20T06:32:36;3.58;;;3.03;;
27313;SDS011;14800;48.174;9.798;2023-12-20T06:35:03;4.00;;;3.08;;
27313;SDS011;14800;48.174;9.798;2023-12-20T06:37:30;3.83;;;3.30;;
27313;SDS011;14800;48.174;9.798;2023-12-20T06:39:55;3.22;;;2.92;;
27313;SDS011;14800;48.174;9.798;2023-12-20T06:42:21;4.55;;;3.60;;
27313;SDS011;14800;48.174;9.798;2023-12-20T06:44:47;4.88;;;3.70;;
27313;SDS011;14800;48.174;9.798;2023-12-20T06:47:13;3.88;;;3.45;;
27313;SDS011;14800;48.174;9.798;2023-12-20T06:49:39;3.58;;;3.28;;
27313;SDS011;14800;48.174;9.798;2023-12-20T06:52:05;4.80;;;3.22;;
27313;SDS011;14800;48.174;9.798;2023-12-20T06:54:31;3.92;;;3.40;;
27313;SDS011;14800;48.174;9.798;2023-12-20T06:56:59;3.95;;;3.35;;
27313;SDS011;14800;48.174;9.798;2023-12-20T06:59:24;3.58;;;3.28;;
27313;SDS011;14800;48.174;9.798;2023-12-20T07:01:51;3.33;;;3.03;;
27313;SDS011;14800;48.174;9.798;2023-12-20T07:04:16;4.05;;;3.20;;
27313;SDS011;14800;48.174;9.798;2023-12-20T07:06:47;5.05;;;3.15;;
27313;SDS011;14800;48.174;9.798;2023-12-20T07:09:13;4.53;;;3.05;;
27313;SDS011;14800;48.174;9.798;2023-12-20T07:11:39;3.97;;;3.20;;
27313;SDS011;14800;48.174;9.798;2023-12-20T07:14:05;3.22;;;2.92;;
27313;SDS011;14800;48.174;9.798;2023-12-20T07:16:30;3.58;;;2.95;;
27313;SDS011;14800;48.174;9.798;2023-12-20T07:18:56;4.13;;;2.90;;
27313;SDS011;14800;48.174;9.798;2023-12-20T07:21:22;3.50;;;2.92;;
27313;SDS011;14800;48.174;9.798;2023-12-20T07:23:47;4.07;;;3.10;;
27313;SDS011;14800;48.174;9.798;2023-12-20T07:26:13;3.30;;;3.00;;
27313;SDS011;14800;48.174;9.798;2023-12-20T07:28:39;3.60;;;3.30;;
27313;SDS011;14800;48.174;9.798;2023-12-20T07:31:05;3.45;;;3.00;;
27313;SDS011;14800;48.174;9.798;2023-12-20T07:33:31;4.20;;;3.22;;
27313;SDS011;14800;48.174;9.798;2023-12-20T07:35:56;3.60;;;3.30;;
27313;SDS011;14800;48.174;9.798;2023-12-20T07:38:24;3.72;;;3.42;;
27313;SDS011;14800;48.174;9.798;2023-12-20T07:40:49;3.45;;;3.15;;
27313;SDS011;14800;48.174;9.798;2023-12-20T07:43:15;4.25;;;3.35;;
27313;SDS011;14800;48.174;9.798;2023-12-20T07:45:40;4.22;;;3.70;;
27313;SDS011;14800;48.174;9.798;2023-12-20T07:48:06;4.93;;;4.10;;
27313;SDS011;14800;48.174;9.798;2023-12-20T07:50:32;4.30;;;3.75;;
27313;SDS011;14800;48.174;9.798;2023-12-20T07:52:58;4.85;;;3.70;;
27313;SDS011;14800;48.174;9.798;2023-12-20T07:55:25;4.05;;;3.65;;
27313;SDS011;14800;48.174;9.798;2023-12-20T07:57:51;3.97;;;3.63;;
27313;SDS011;14800;48.174;9.798;2023-12-20T08:00:17;5.30;;;4.60;;
27313;SDS011;14800;48.174;9.798;2023-12-20T08:02:44;4.88;;;3.72;;
27313;SDS011;14800;48.174;9.798;2023-12-20T08:05:09;5.32;;;4.18;;
27313;SDS011;14800;48.174;9.798;2023-12-20T08:07:35;4.78;;;4.10;;
27313;SDS011;14800;48.174;9.798;2023-12-20T08:10:01;4.53;;;3.72;;
27313;SDS011;14800;48.174;9.798;2023-12-20T08:12:26;4.85;;;3.92;;
27313;SDS011;14800;48.174;9.798;2023-12-20T08:14:53;4.35;;;3.95;;
27313;SDS011;14800;48.174;9.798;2023-12-20T08:17:19;4.43;;;4.03;;
27313;SDS011;14800;48.174;9.798;2023-12-20T08:19:44;4.32;;;3.83;;
27313;SDS011;14800;48.174;9.798;2023-12-20T08:22:10;3.80;;;3.40;;
27313;SDS011;14800;48.174;9.798;2023-12-20T08:24:36;4.88;;;4.07;;
27313;SDS011;14800;48.174;9.798;2023-12-20T08:27:02;4.40;;;4.00;;
27313;SDS011;14800;48.174;9.798;2023-12-20T08:29:27;4.38;;;3.97;;
27313;SDS011;14800;48.174;9.798;2023-12-20T08:31:53;6.40;;;4.53;;
27313;SDS011;14800;48.174;9.798;2023-12-20T08:34:20;4.70;;;4.20;;
27313;SDS011;14800;48.174;9.798;2023-12-20T08:36:45;5.53;;;4.53;;
27313;SDS011;14800;48.174;9.798;2023-12-20T08:39:11;5.05;;;4.40;;
27313;SDS011;14800;48.174;9.798;2023-12-20T08:41:36;5.60;;;4.85;;
27313;SDS011;14800;48.174;9.798;2023-12-20T08:44:02;6.10;;;4.32;;
27313;SDS011;14800;48.174;9.798;2023-12-20T08:46:28;5.07;;;4.13;;
27313;SDS011;14800;48.174;9.798;2023-12-20T08:48:54;5.78;;;4.25;;
27313;SDS011;14800;48.174;9.798;2023-12-20T08:51:20;4.97;;;4.47;;
27313;SDS011;14800;48.174;9.798;2023-12-20T08:53:47;4.70;;;4.15;;
27313;SDS011;14800;48.174;9.798;2023-12-20T08:56:14;5.13;;;3.97;;
27313;SDS011;14800;48.174;9.798;2023-12-20T08:58:40;5.68;;;4.32;;
27313;SDS011;14800;48.174;9.798;2023-12-20T09:01:06;4.95;;;4.22;;
27313;SDS011;14800;48.174;9.798;2023-12-20T09:03:32;6.13;;;4.30;;
27313;SDS011;14800;48.174;9.798;2023-12-20T09:05:58;4.68;;;4.20;;
27313;SDS011;14800;48.174;9.798;2023-12-20T09:08:23;4.65;;;4.10;;
27313;SDS011;14800;48.174;9.798;2023-12-20T09:10:49;4.95;;;4.13;;
27313;SDS011;14800;48.174;9.798;2023-12-20T09:13:15;4.70;;;4.15;;
27313;SDS011;14800;48.174;9.798;2023-12-20T09:15:40;5.60;;;4.20;;
27313;SDS011;14800;48.174;9.798;2023-12-20T09:18:06;5.45;;;4.22;;
27313;SDS011;14800;48.174;9.798;2023-12-20T09:20:31;5.38;;;4.30;;
27313;SDS011;14800;48.174;9.798;2023-12-20T09:22:57;5.07;;;3.97;;
27313;SDS011;14800;48.174;9.798;2023-12-20T09:25:23;5.38;;;4.03;;
27313;SDS011;14800;48.174;9.798;2023-12-20T09:27:50;4.95;;;3.72;;
27313;SDS011;14800;48.174;9.798;2023-12-20T09:30:17;4.15;;;3.75;;
27313;SDS011;14800;48.174;9.798;2023-12-20T09:32:42;3.58;;;3.13;;
27313;SDS011;14800;48.174;9.798;2023-12-20T09:35:08;4.47;;;3.80;;
27313;SDS011;14800;48.174;9.798;2023-12-20T09:37:34;9.40;;;4.03;;
27313;SDS011;14800;48.174;9.798;2023-12-20T09:40:00;4.65;;;3.42;;
27313;SDS011;14800;48.174;9.798;2023-12-20T09:42:38;4.50;;;3.72;;
27313;SDS011;14800;48.174;9.798;2023-12-20T09:45:25;3.58;;;3.28;;
27313;SDS011;14800;48.174;9.798;2023-12-20T09:47:54;4.03;;;3.63;;
27313;SDS011;14800;48.174;9.798;2023-12-20T09:50:20;3.70;;;3.40;;
27313;SDS011;14800;48.174;9.798;2023-12-20T09:52:50;3.75;;;3.28;;
27313;SDS011;14800;48.174;9.798;2023-12-20T09:55:17;3.72;;;3.38;;
27313;SDS011;14800;48.174;9.798;2023-12-20T09:57:46;3.95;;;3.10;;
27313;SDS011;14800;48.174;9.798;2023-12-20T10:00:13;3.08;;;2.78;;
27313;SDS011;14800;48.174;9.798;2023-12-20T10:02:50;3.70;;;3.17;;
27313;SDS011;14800;48.174;9.798;2023-12-20T10:05:19;2.95;;;2.75;;
27313;SDS011;14800;48.174;9.798;2023-12-20T10:07:52;3.03;;;2.78;;
27313;SDS011;14800;48.174;9.798;2023-12-20T10:10:17;3.08;;;2.78;;
27313;SDS011;14800;48.174;9.798;2023-12-20T10:13:00;2.90;;;2.60;;
27313;SDS011;14800;48.174;9.798;2023-12-20T10:15:28;2.97;;;1.95;;
27313;SDS011;14800;48.174;9.798;2023-12-20T10:17:53;2.00;;;1.83;;
27313;SDS011;14800;48.174;9.798;2023-12-20T10:20:19;2.33;;;2.13;;
27313;SDS011;14800;48.174;9.798;2023-12-20T10:22:45;2.42;;;2.00;;
27313;SDS011;14800;48.174;9.798;2023-12-20T10:25:12;2.45;;;1.85;;
27313;SDS011;14800;48.174;9.798;2023-12-20T10:27:38;2.17;;;1.95;;
27313;SDS011;14800;48.174;9.798;2023-12-20T10:30:03;2.60;;;1.98;;
27313;SDS011;14800;48.174;9.798;2023-12-20T10:32:29;1.90;;;1.80;;
27313;SDS011;14800;48.174;9.798;2023-12-20T10:34:56;2.45;;;2.20;;
27313;SDS011;14800;48.174;9.798;2023-12-20T10:37:22;3.35;;;1.90;;
27313;SDS011;14800;48.174;9.798;2023-12-20T10:39:51;1.63;;;1.52;;
27313;SDS011;14800;48.174;9.798;2023-12-20T10:42:21;1.80;;;1.70;;
27313;SDS011;14800;48.174;9.798;2023-12-20T10:44:47;2.17;;;1.90;;
27313;SDS011;14800;48.174;9.798;2023-12-20T10:47:14;1.70;;;1.60;;
27313;SDS011;14800;48.174;9.798;2023-12-20T10:49:41;1.63;;;1.52;;
27313;SDS011;14800;48.174;9.798;2023-12-20T10:52:07;4.32;;;2.72;;
27313;SDS011;14800;48.174;9.798;2023-12-20T10:54:34;2.70;;;2.38;;
27313;SDS011;14800;48.174;9.798;2023-12-20T10:56:59;2.40;;;2.20;;
27313;SDS011;14800;48.174;9.798;2023-12-20T10:59:29;2.00;;;1.85;;
27313;SDS011;14800;48.174;9.798;2023-12-20T11:02:04;1.90;;;1.75;;
27313;SDS011;14800;48.174;9.798;2023-12-20T11:07:23;1.48;;;0.90;;
27313;SDS011;14800;48.174;9.798;2023-12-20T11:09:59;0.75;;;0.30;;
27313;SDS011;14800;48.174;9.798;2023-12-20T11:15:19;0.20;;;0.20;;
27313;SDS011;14800;48.174;9.798;2023-12-20T11:17:47;0.10;;;0.05;;
27313;SDS011;14800;48.174;9.798;2023-12-20T11:20:21;0.20;;;0.10;;
27313;SDS011;14800;48.174;9.798;2023-12-20T11:23:01;0.55;;;0.10;;
27313;SDS011;14800;48.174;9.798;2023-12-20T11:25:27;0.10;;;0.10;;
27313;SDS011;14800;48.174;9.798;2023-12-20T11:28:09;0.10;;;0.10;;
27313;SDS011;14800;48.174;9.798;2023-12-20T11:33:08;0.20;;;0.15;;
27313;SDS011;14800;48.174;9.798;2023-12-20T11:35:34;0.15;;;0.15;;
27313;SDS011;14800;48.174;9.798;2023-12-20T11:38:01;0.85;;;0.10;;
27313;SDS011;14800;48.174;9.798;2023-12-20T11:40:27;0.63;;;0.20;;
27313;SDS011;14800;48.174;9.798;2023-12-20T11:42:53;0.40;;;0.30;;
27313;SDS011;14800;48.174;9.798;2023-12-20T11:45:19;0.63;;;0.40;;
27313;SDS011;14800;48.174;9.798;2023-12-20T11:47:49;0.65;;;0.50;;
27313;SDS011;14800;48.174;9.798;2023-12-20T11:50:16;1.52;;;0.70;;
27313;SDS011;14800;48.174;9.798;2023-12-20T11:52:42;0.40;;;0.40;;
27313;SDS011;14800;48.174;9.798;2023-12-20T11:55:07;2.17;;;0.70;;
27313;SDS011;14800;48.174;9.798;2023-12-20T11:57:33;0.85;;;0.80;;
27313;SDS011;14800;48.174;9.798;2023-12-20T11:59:59;0.90;;;0.80;;
27313;SDS011;14800;48.174;9.798;2023-12-20T12:02:24;1.30;;;0.77;;
27313;SDS011;14800;48.174;9.798;2023-12-20T12:04:50;1.90;;;0.93;;
27313;SDS011;14800;48.174;9.798;2023-12-20T12:07:16;2.05;;;1.08;;
27313;SDS011;14800;48.174;9.798;2023-12-20T12:09:42;1.98;;;1.20;;
27313;SDS011;14800;48.174;9.798;2023-12-20T12:12:08;2.08;;;1.00;;
27313;SDS011;14800;48.174;9.798;2023-12-20T12:14:36;1.00;;;0.75;;
27313;SDS011;14800;48.174;9.798;2023-12-20T12:17:02;1.95;;;0.93;;
27313;SDS011;14800;48.174;9.798;2023-12-20T12:19:28;1.20;;;0.95;;
27313;SDS011;14800;48.174;9.798;2023-12-20T12:22:11;1.92;;;0.73;;
27313;SDS011;14800;48.174;9.798;2023-12-20T12:24:42;1.00;;;0.68;;
27313;SDS011;14800;48.174;9.798;2023-12-20T12:27:09;1.15;;;0.93;;
27313;SDS011;14800;48.174;9.798;2023-12-20T12:29:35;0.70;;;0.63;;
27313;SDS011;14800;48.174;9.798;2023-12-20T12:32:02;1.95;;;0.77;;
27313;SDS011;14800;48.174;9.798;2023-12-20T12:34:36;0.75;;;0.75;;
27313;SDS011;14800;48.174;9.798;2023-12-20T12:37:02;0.47;;;0.47;;
27313;SDS011;14800;48.174;9.798;2023-12-20T12:39:30;1.13;;;0.50;;
27313;SDS011;14800;48.174;9.798;2023-12-20T12:41:56;0.73;;;0.73;;
27313;SDS011;14800;48.174;9.798;2023-12-20T12:44:24;2.05;;;0.95;;
27313;SDS011;14800;48.174;9.798;2023-12-20T12:46:50;0.57;;;0.57;;
27313;SDS011;14800;48.174;9.798;2023-12-20T12:49:18;0.82;;;0.70;;
27313;SDS011;14800;48.174;9.798;2023-12-20T12:51:47;0.80;;;0.80;;
27313;SDS011;14800;48.174;9.798;2023-12-20T12:54:13;1.25;;;0.85;;
27313;SDS011;14800;48.174;9.798;2023-12-20T12:56:41;0.63;;;0.63;;
27313;SDS011;14800;48.174;9.798;2023-12-20T12:59:06;0.75;;;0.70;;
27313;SDS011;14800;48.174;9.798;2023-12-20T13:01:33;0.85;;;0.80;;
27313;SDS011;14800;48.174;9.798;2023-12-20T13:03:59;1.13;;;0.88;;
27313;SDS011;14800;48.174;9.798;2023-12-20T13:06:26;1.13;;;0.85;;
27313;SDS011;14800;48.174;9.798;2023-12-20T13:08:52;1.15;;;0.80;;
27313;SDS011;14800;48.174;9.798;2023-12-20T13:11:17;1.00;;;0.90;;
27313;SDS011;14800;48.174;9.798;2023-12-20T13:13:43;0.73;;;0.70;;
27313;SDS011;14800;48.174;9.798;2023-12-20T13:16:08;1.10;;;1.00;;
27313;SDS011;14800;48.174;9.798;2023-12-20T13:18:34;0.77;;;0.70;;
27313;SDS011;14800;48.174;9.798;2023-12-20T13:20:59;3.55;;;0.90;;
27313;SDS011;14800;48.174;9.798;2023-12-20T13:23:25;1.65;;;0.88;;
27313;SDS011;14800;48.174;9.798;2023-12-20T13:25:51;1.75;;;0.90;;
27313;SDS011;14800;48.174;9.798;2023-12-20T13:28:16;1.58;;;0.88;;
27313;SDS011;14800;48.174;9.798;2023-12-20T13:30:42;1.75;;;1.00;;
27313;SDS011;14800;48.174;9.798;2023-12-20T13:33:08;1.52;;;0.98;;
27313;SDS011;14800;48.174;9.798;2023-12-20T13:35:34;1.20;;;1.10;;
27313;SDS011;14800;48.174;9.798;2023-12-20T13:37:59;1.83;;;1.05;;
27313;SDS011;14800;48.174;9.798;2023-12-20T13:40:26;2.03;;;1.10;;
27313;SDS011;14800;48.174;9.798;2023-12-20T13:42:51;3.60;;;1.95;;
27313;SDS011;14800;48.174;9.798;2023-12-20T13:45:17;4.50;;;2.08;;
27313;SDS011;14800;48.174;9.798;2023-12-20T13:47:43;1.90;;;1.40;;
27313;SDS011;14800;48.174;9.798;2023-12-20T13:50:08;2.83;;;1.20;;
27313;SDS011;14800;48.174;9.798;2023-12-20T13:52:34;1.20;;;1.10;;
27313;SDS011;14800;48.174;9.798;2023-12-20T13:55:00;2.65;;;1.10;;
27313;SDS011;14800;48.174;9.798;2023-12-20T13:57:26;1.70;;;0.90;;
27313;SDS011;14800;48.174;9.798;2023-12-20T13:59:53;1.25;;;1.00;;
27313;SDS011;14800;48.174;9.798;2023-12-20T14:02:19;1.85;;;0.90;;
27313;SDS011;14800;48.174;9.798;2023-12-20T14:04:45;1.98;;;1.20;;
27313;SDS011;14800;48.174;9.798;2023-12-20T14:07:10;1.40;;;1.30;;
27313;SDS011;14800;48.174;9.798;2023-12-20T14:09:36;1.52;;;1.02;;
27313;SDS011;14800;48.174;9.798;2023-12-20T14:12:01;2.67;;;1.20;;
27313;SDS011;14800;48.174;9.798;2023-12-20T14:14:27;1.77;;;0.95;;
27313;SDS011;14800;48.174;9.798;2023-12-20T14:16:53;1.38;;;0.95;;
27313;SDS011;14800;48.174;9.798;2023-12-20T14:19:18;1.58;;;0.82;;
27313;SDS011;14800;48.174;9.798;2023-12-20T14:21:44;1.58;;;1.00;;
27313;SDS011;14800;48.174;9.798;2023-12-20T14:24:11;2.38;;;1.10;;
27313;SDS011;14800;48.174;9.798;2023-12-20T14:26:40;2.30;;;0.80;;
27313;SDS011;14800;48.174;9.798;2023-12-20T14:29:06;2.00;;;1.05;;
27313;SDS011;14800;48.174;9.798;2023-12-20T14:31:32;3.63;;;1.08;;
27313;SDS011;14800;48.174;9.798;2023-12-20T14:33:58;1.95;;;1.00;;
27313;SDS011;14800;48.174;9.798;2023-12-20T14:36:24;1.83;;;1.05;;
27313;SDS011;14800;48.174;9.798;2023-12-20T14:38:50;4.82;;;1.10;;
27313;SDS011;14800;48.174;9.798;2023-12-20T14:41:16;3.70;;;0.90;;
27313;SDS011;14800;48.174;9.798;2023-12-20T14:43:45;1.58;;;0.80;;
27313;SDS011;14800;48.174;9.798;2023-12-20T14:46:11;1.80;;;1.00;;
27313;SDS011;14800;48.174;9.798;2023-12-20T14:48:37;2.22;;;1.00;;
27313;SDS011;14800;48.174;9.798;2023-12-20T14:51:03;2.85;;;1.05;;